メインページ
METAR-TAF:

METAR-TAF

空港 :

プンタアレナス, チリ

緯度: 53-00S, 経度: 070-51W, 海抜: 37m

現時点の気象観測

当レポートは37分前の03:00(UTC)に作成
西/南西の風 16kt
気温 2°C
湿度 64%
気圧 1013 hPa
視程10km以上
高度4000ftの雲はほとんどない

METAR: SCCI 260300Z 24016KT 9999 FEW040 02/M04 Q1013 NOSIG

時間: 23:37 (03:37 UTC)

予報

当レポートは5時間0分前の22:37(UTC)に作成
予報は26日の 00時(UTC)から 27日の 00時(UTC)まで有効
西/南西の風 17kt、最大27ktの突風を伴う
視程10km以上
高度3300ftの雲はほとんどない
26日の 01時(UTC)から 26日の 03時(UTC)まで徐々に
西/南西の風 15kt
高度2000ftの雲はほとんどない
高度4000ftの千切れ雲あり
26日の 13時(UTC)から 26日の 15時(UTC)まで徐々に
西の風 13kt
高度3000ftの千切れ雲あり
確率 30% :
26日の 20時(UTC)から 27日の 00時(UTC)まで一時的に
視程: 8000m
高度1500ftの雲は散在している
高度3000ftの千切れ雲あり
弱いにわか雨, 弱いにわか雨, 雪

TAF: SCCI 252237Z 2600/2700 24017G27KT 9999 FEW033 TNM01/2612Z TX06/2618Z BECMG 2601/2603 24015KT FEW020 BKN040 BECMG 2613/2615 28013KT BKN030 PROB30 TEMPO 2620/2700 8000 -SHRA -SHRASN SCT015 BKN030

4,000以上の空港の気象観測と天気予報(METAR報とTAF報)

利用可能な観測所は地図上に黄色い丸と赤い丸で示す。

丸の上にカーソルを重ねると観測所名を参照できる。

次にクリックすると気象観測と天気予報を参照できる。

マップの切り替え:黒色「×」印の緑ボタンをクリックして拡大、「-」印の緑ボタンをクリックして縮小、緑色の三角印をクリックして隣りの地図に切り替え


METAR-TAF: